createdAt,value
2022-12-01T00:01:19.624Z,11.52
2022-12-01T00:04:22.215Z,14.30
2022-12-01T00:07:24.843Z,10.03
2022-12-01T00:10:28.403Z,22.25
2022-12-01T00:13:31.175Z,20.02
2022-12-01T00:16:34.329Z,15.13
2022-12-01T00:19:37.443Z,15.30
2022-12-01T00:22:46.742Z,12.18
2022-12-01T00:25:49.886Z,11.57
2022-12-01T00:28:55.901Z,15.07
2022-12-01T00:31:58.930Z,15.52
2022-12-01T00:35:02.329Z,17.08
2022-12-01T00:38:05.414Z,13.83
2022-12-01T00:41:08.323Z,14.57
2022-12-01T00:44:11.327Z,15.88
2022-12-01T00:47:14.552Z,17.47
2022-12-01T00:50:17.380Z,11.25
2022-12-01T00:53:20.221Z,17.00
2022-12-01T00:56:23.211Z,12.73
2022-12-01T00:59:26.423Z,13.10
2022-12-01T01:02:30.004Z,13.50
2022-12-01T01:05:36.339Z,14.38
2022-12-01T01:08:39.936Z,13.80
2022-12-01T01:11:42.756Z,16.08
2022-12-01T01:14:45.901Z,16.00
2022-12-01T01:17:48.487Z,15.40
2022-12-01T01:21:03.803Z,12.50
2022-12-01T01:24:06.600Z,18.30
2022-12-01T01:27:09.486Z,16.25
2022-12-01T01:30:13.223Z,18.73
2022-12-01T01:33:16.185Z,16.17
2022-12-01T01:36:19.619Z,14.13
2022-12-01T01:39:22.379Z,13.40
2022-12-01T01:42:24.995Z,13.27
2022-12-01T01:45:29.947Z,13.73
2022-12-01T01:48:36.556Z,15.63
2022-12-01T01:51:41.810Z,13.88
2022-12-01T01:54:48.039Z,13.75
2022-12-01T01:57:51.221Z,15.48
2022-12-01T02:00:53.795Z,13.80
2022-12-01T02:03:57.175Z,15.10
2022-12-01T02:07:00.081Z,14.00
2022-12-01T02:10:02.970Z,14.23
2022-12-01T02:13:27.813Z,14.40
2022-12-01T02:16:36.708Z,14.23
2022-12-01T02:20:25.666Z,14.00
2022-12-01T02:24:10.027Z,15.82
2022-12-01T02:30:53.729Z,14.63
2022-12-01T02:34:25.502Z,10.73
2022-12-01T02:37:40.904Z,15.25
2022-12-01T02:41:08.057Z,13.98
2022-12-01T02:44:27.839Z,12.70
2022-12-01T02:47:31.405Z,13.27
2022-12-01T02:50:35.974Z,13.95
2022-12-01T02:53:38.848Z,12.30
2022-12-01T02:56:45.192Z,15.05
2022-12-01T02:59:52.033Z,14.60
2022-12-01T03:03:46.242Z,14.25
2022-12-01T03:07:27.250Z,14.35
2022-12-01T03:10:53.148Z,17.50
2022-12-01T03:14:04.966Z,15.85
2022-12-01T03:17:14.700Z,13.90
2022-12-01T03:20:32.230Z,14.55
2022-12-01T03:23:38.756Z,18.45
2022-12-01T03:26:46.103Z,17.13
2022-12-01T03:29:51.968Z,15.20
2022-12-01T03:33:01.279Z,14.88
2022-12-01T03:36:28.934Z,13.98
2022-12-01T03:39:34.815Z,13.13
2022-12-01T03:42:49.688Z,13.73
2022-12-01T03:46:10.621Z,14.23
2022-12-01T03:49:17.436Z,16.43
2022-12-01T03:52:40.983Z,14.10
2022-12-01T03:55:47.124Z,16.95
2022-12-01T03:58:52.686Z,18.07
2022-12-01T04:01:55.463Z,14.38
2022-12-01T04:04:57.986Z,17.35
2022-12-01T04:08:01.457Z,14.65
2022-12-01T04:11:32.248Z,15.88
2022-12-01T04:14:35.451Z,14.60
2022-12-01T04:17:39.103Z,15.48
2022-12-01T04:20:43.620Z,15.03
2022-12-01T04:24:01.050Z,16.38
2022-12-01T04:27:03.992Z,16.80
2022-12-01T04:30:08.045Z,15.73
2022-12-01T04:33:10.702Z,18.90
2022-12-01T04:36:13.080Z,15.95
2022-12-01T04:39:16.224Z,17.30
2022-12-01T04:42:18.771Z,17.83
2022-12-01T04:45:21.428Z,17.48
2022-12-01T04:48:24.095Z,18.70
2022-12-01T04:51:26.849Z,15.43
2022-12-01T04:54:29.742Z,16.58
2022-12-01T04:57:32.377Z,17.63
2022-12-01T05:00:35.130Z,14.33
2022-12-01T05:03:39.732Z,18.02
2022-12-01T05:06:42.828Z,17.95
2022-12-01T05:09:45.591Z,20.67
2022-12-01T05:12:48.347Z,32.20
2022-12-01T05:15:51.269Z,18.80
2022-12-01T05:19:16.258Z,19.13
2022-12-01T05:22:36.394Z,17.63
2022-12-01T05:25:43.363Z,18.55
2022-12-01T05:28:46.453Z,22.45
2022-12-01T05:31:49.228Z,22.70
2022-12-01T05:34:52.059Z,18.10
2022-12-01T05:37:54.790Z,23.25
2022-12-01T05:40:57.680Z,25.98
2022-12-01T05:44:00.202Z,24.77
2022-12-01T05:47:03.106Z,27.27
2022-12-01T05:50:06.437Z,25.20
2022-12-01T05:53:11.830Z,22.80
2022-12-01T05:56:15.003Z,23.13
2022-12-01T05:59:17.695Z,18.42
2022-12-01T06:02:20.405Z,22.90
2022-12-01T06:05:23.295Z,25.65
2022-12-01T06:08:25.982Z,23.00
2022-12-01T06:11:28.826Z,22.75
2022-12-01T06:14:31.568Z,20.10
2022-12-01T06:17:39.773Z,19.40
2022-12-01T06:20:42.984Z,21.77
2022-12-01T06:23:45.574Z,23.77
2022-12-01T06:26:48.069Z,20.25
2022-12-01T06:29:51.163Z,24.70
2022-12-01T06:32:53.915Z,26.97
2022-12-01T06:36:04.893Z,27.00
2022-12-01T06:39:10.130Z,22.95
2022-12-01T06:42:12.676Z,27.63
2022-12-01T06:45:15.467Z,41.13
2022-12-01T06:48:17.860Z,42.83
2022-12-01T06:51:20.530Z,39.67
2022-12-01T06:54:23.083Z,32.80
2022-12-01T06:57:26.408Z,32.40
2022-12-01T07:00:29.336Z,24.17
2022-12-01T07:03:31.963Z,25.83
2022-12-01T07:06:34.956Z,25.05
2022-12-01T07:09:38.906Z,23.13
2022-12-01T07:12:42.623Z,26.33
2022-12-01T07:15:45.103Z,20.38
2022-12-01T07:18:47.976Z,17.98
2022-12-01T07:21:50.591Z,22.65
2022-12-01T07:24:53.322Z,20.13
2022-12-01T07:27:56.674Z,15.30
2022-12-01T07:31:07.646Z,14.70
2022-12-01T07:34:13.336Z,16.27
2022-12-01T07:37:15.943Z,16.98
2022-12-01T07:40:18.855Z,14.55
2022-12-01T07:43:21.414Z,13.15
2022-12-01T07:46:26.637Z,18.80
2022-12-01T07:49:29.459Z,12.40
2022-12-01T07:52:32.596Z,14.65
2022-12-01T07:55:35.122Z,13.63
2022-12-01T07:58:38.084Z,12.38
2022-12-01T08:01:44.436Z,12.75
2022-12-01T08:04:49.962Z,13.73
2022-12-01T08:07:59.423Z,12.85
2022-12-01T08:11:06.748Z,12.95
2022-12-01T08:14:09.465Z,12.45
2022-12-01T08:17:12.021Z,12.18
2022-12-01T08:20:20.821Z,11.15
2022-12-01T08:23:26.196Z,10.30
2022-12-01T08:26:29.322Z,10.57
2022-12-01T08:29:31.910Z,13.88
2022-12-01T08:32:34.688Z,11.55
2022-12-01T08:35:37.293Z,12.20
2022-12-01T08:38:40.047Z,12.73
2022-12-01T08:41:42.766Z,14.60
2022-12-01T08:44:45.364Z,12.07
2022-12-01T08:47:48.202Z,13.27
2022-12-01T08:50:50.758Z,14.15
2022-12-01T08:53:55.415Z,16.98
2022-12-01T08:56:57.949Z,15.67
2022-12-01T09:00:00.602Z,14.55
2022-12-01T09:03:03.510Z,17.77
2022-12-01T09:06:08.972Z,12.70
2022-12-01T09:09:14.607Z,13.10
2022-12-01T09:12:17.439Z,15.43
2022-12-01T09:15:20.192Z,12.63
2022-12-01T09:18:22.988Z,14.32
2022-12-01T09:21:28.623Z,11.40
2022-12-01T09:24:31.662Z,11.68
2022-12-01T09:27:34.195Z,15.67
2022-12-01T09:30:37.180Z,10.48
2022-12-01T09:33:40.496Z,10.95
2022-12-01T09:36:44.315Z,11.43
2022-12-01T09:39:47.017Z,12.40
2022-12-01T09:42:50.307Z,10.85
2022-12-01T09:45:59.099Z,10.68
2022-12-01T09:49:04.243Z,10.73
2022-12-01T09:52:12.775Z,10.23
2022-12-01T09:55:17.774Z,11.43
2022-12-01T09:58:26.387Z,10.60
2022-12-01T10:01:42.801Z,10.70
2022-12-01T10:04:48.914Z,11.27
2022-12-01T10:08:07.342Z,13.73
2022-12-01T10:11:33.424Z,9.77
2022-12-01T10:14:37.242Z,13.57
2022-12-01T10:17:47.688Z,12.07
2022-12-01T10:20:59.173Z,10.38
2022-12-01T10:24:13.916Z,11.20
2022-12-01T10:27:47.270Z,12.18
2022-12-01T10:30:53.507Z,10.83
2022-12-01T10:34:06.437Z,11.70
2022-12-01T10:37:25.954Z,11.23
2022-12-01T10:40:29.064Z,10.33
2022-12-01T10:43:39.945Z,11.82
2022-12-01T10:46:52.539Z,10.25
2022-12-01T10:49:56.530Z,10.02
2022-12-01T10:52:59.005Z,12.05
2022-12-01T10:56:11.346Z,15.10
2022-12-01T10:59:36.120Z,12.15
2022-12-01T11:02:39.166Z,10.97
2022-12-01T11:05:42.789Z,11.43
2022-12-01T11:09:00.143Z,12.05
2022-12-01T11:12:04.773Z,11.43
2022-12-01T11:15:08.827Z,11.45
2022-12-01T11:18:28.565Z,11.07
2022-12-01T11:21:31.068Z,15.23
2022-12-01T11:24:42.583Z,11.18
2022-12-01T11:27:50.956Z,11.07
2022-12-01T11:30:58.635Z,11.65
2022-12-01T11:34:01.270Z,9.43
2022-12-01T11:37:07.760Z,14.60
2022-12-01T11:40:28.959Z,10.18
2022-12-01T11:43:37.763Z,15.17
2022-12-01T11:46:50.395Z,10.73
2022-12-01T11:50:00.967Z,11.05
2022-12-01T11:53:04.903Z,13.32
2022-12-01T11:56:13.961Z,12.27
2022-12-01T11:59:21.636Z,11.27
2022-12-01T12:02:35.869Z,14.73
2022-12-01T12:05:57.589Z,12.17
2022-12-01T12:09:40.153Z,10.10
2022-12-01T12:12:53.029Z,12.70
2022-12-01T12:16:13.071Z,9.23
2022-12-01T12:20:06.261Z,13.05
2022-12-01T12:23:21.632Z,9.43
2022-12-01T12:27:00.421Z,12.15
2022-12-01T12:30:06.100Z,14.90
2022-12-01T12:33:23.553Z,12.60
2022-12-01T12:37:05.314Z,11.25
2022-12-01T12:40:29.848Z,11.67
2022-12-01T12:44:00.394Z,16.85
2022-12-01T12:47:34.871Z,15.23
2022-12-01T12:50:53.169Z,10.93
2022-12-01T12:54:15.106Z,9.88
2022-12-01T12:57:29.401Z,13.57
2022-12-01T13:00:34.984Z,10.95
2022-12-01T13:03:48.214Z,15.70
2022-12-01T13:07:00.542Z,9.25
2022-12-01T13:10:28.900Z,11.90
2022-12-01T13:13:37.653Z,11.50
2022-12-01T13:16:44.037Z,11.10
2022-12-01T13:19:48.287Z,10.50
2022-12-01T13:22:52.958Z,9.20
2022-12-01T13:25:59.479Z,9.30
2022-12-01T13:29:06.176Z,11.48
2022-12-01T13:32:38.365Z,11.95
2022-12-01T13:35:40.992Z,11.93
2022-12-01T13:38:44.055Z,11.63
2022-12-01T13:41:56.683Z,8.85
2022-12-01T13:45:10.531Z,10.70
2022-12-01T13:48:38.188Z,9.77
2022-12-01T13:52:19.473Z,13.30
2022-12-01T13:55:28.462Z,12.53
2022-12-01T13:58:33.872Z,14.20
2022-12-01T14:01:46.282Z,13.70
2022-12-01T14:04:49.337Z,11.93
2022-12-01T14:07:54.080Z,11.32
2022-12-01T14:11:01.499Z,13.63
2022-12-01T14:14:24.244Z,13.68
2022-12-01T14:17:34.287Z,16.70
2022-12-01T14:20:45.725Z,23.00
2022-12-01T14:24:05.136Z,15.70
2022-12-01T14:27:10.984Z,23.60
2022-12-01T14:30:42.120Z,32.17
2022-12-01T14:33:57.909Z,25.00
2022-12-01T14:37:26.229Z,24.50
2022-12-01T14:40:30.391Z,21.15
2022-12-01T14:43:51.982Z,27.50
2022-12-01T14:47:06.495Z,26.77
2022-12-01T14:50:35.309Z,29.17
2022-12-01T14:53:44.575Z,23.35
2022-12-01T14:56:51.440Z,37.97
2022-12-01T15:00:14.219Z,27.90
2022-12-01T15:03:16.789Z,39.35
2022-12-01T15:06:21.788Z,42.33
2022-12-01T15:09:33.618Z,29.10
2022-12-01T15:12:37.536Z,27.42
2022-12-01T15:15:51.420Z,28.85
2022-12-01T15:18:54.108Z,27.85
2022-12-01T15:21:59.966Z,18.73
2022-12-01T15:25:20.615Z,19.70
2022-12-01T15:28:33.790Z,32.53
2022-12-01T15:31:36.645Z,31.23
2022-12-01T15:34:44.532Z,23.02
2022-12-01T15:37:47.217Z,26.55
2022-12-01T15:41:21.094Z,29.20
2022-12-01T15:44:26.170Z,19.60
2022-12-01T15:47:46.143Z,22.10
2022-12-01T15:51:04.735Z,23.10
2022-12-01T15:54:20.855Z,28.17
2022-12-01T15:57:24.722Z,28.23
2022-12-01T16:00:28.519Z,28.60
2022-12-01T16:03:31.746Z,30.50
2022-12-01T16:06:37.005Z,28.73
2022-12-01T16:09:55.033Z,21.02
2022-12-01T16:13:34.846Z,24.73
2022-12-01T16:16:43.892Z,24.45
2022-12-01T16:19:48.027Z,26.27
2022-12-01T16:23:02.450Z,25.50
2022-12-01T16:26:08.432Z,28.93
2022-12-01T16:29:25.892Z,31.08
2022-12-01T16:32:38.402Z,45.40
2022-12-01T16:35:40.827Z,34.73
2022-12-01T16:38:43.940Z,23.30
2022-12-01T16:41:47.989Z,18.50
2022-12-01T16:44:52.209Z,24.35
2022-12-01T16:47:55.205Z,20.90
2022-12-01T16:51:02.671Z,24.80
2022-12-01T16:54:06.683Z,22.77
2022-12-01T16:57:09.441Z,19.33
2022-12-01T17:00:12.707Z,17.88
2022-12-01T17:03:16.990Z,13.27
2022-12-01T17:06:20.248Z,13.87
2022-12-01T17:09:23.562Z,10.02
2022-12-01T17:12:26.831Z,14.75
2022-12-01T17:15:29.502Z,12.40
2022-12-01T17:18:35.272Z,15.55
2022-12-01T17:21:38.179Z,12.25
2022-12-01T17:24:41.035Z,16.23
2022-12-01T17:27:44.241Z,12.17
2022-12-01T17:30:47.052Z,33.75
2022-12-01T17:33:50.801Z,30.83
2022-12-01T17:36:53.561Z,47.13
2022-12-01T17:39:56.576Z,28.27
2022-12-01T17:42:59.116Z,18.75
2022-12-01T17:46:02.309Z,15.63
2022-12-01T17:49:09.413Z,13.30
2022-12-01T17:52:12.591Z,12.23
2022-12-01T17:55:15.202Z,12.82
2022-12-01T17:58:21.548Z,12.47
2022-12-01T18:01:30.012Z,18.40
2022-12-01T18:04:33.775Z,16.35
2022-12-01T18:07:36.548Z,17.23
2022-12-01T18:10:39.521Z,17.95
2022-12-01T18:13:47.728Z,17.70
2022-12-01T18:16:50.447Z,16.63
2022-12-01T18:19:53.283Z,16.02
2022-12-01T18:22:56.423Z,19.33
2022-12-01T18:26:12.133Z,19.17
2022-12-01T18:29:26.343Z,20.33
2022-12-01T18:32:29.226Z,19.60
2022-12-01T18:35:32.256Z,21.60
2022-12-01T18:38:34.763Z,31.77
2022-12-01T18:41:38.230Z,22.25
2022-12-01T18:44:42.356Z,27.35
2022-12-01T18:47:45.810Z,29.42
2022-12-01T18:50:48.961Z,24.02
2022-12-01T18:54:00.476Z,23.33
2022-12-01T18:57:03.519Z,33.22
2022-12-01T19:00:07.606Z,19.83
2022-12-01T19:03:10.375Z,28.63
2022-12-01T19:06:13.692Z,25.95
2022-12-01T19:09:17.515Z,26.63
2022-12-01T19:12:20.537Z,20.42
2022-12-01T19:15:23.438Z,27.15
2022-12-01T19:18:25.985Z,20.42
2022-12-01T19:21:29.027Z,23.50
2022-12-01T19:24:35.575Z,22.77
2022-12-01T19:27:39.257Z,24.25
2022-12-01T19:30:47.925Z,28.27
2022-12-01T19:33:53.613Z,25.85
2022-12-01T19:36:57.011Z,20.90
2022-12-01T19:39:59.659Z,23.80
2022-12-01T19:43:02.757Z,19.05
2022-12-01T19:46:15.151Z,14.55
2022-12-01T19:49:18.135Z,19.55
2022-12-01T19:52:21.199Z,18.88
2022-12-01T19:55:23.829Z,30.92
2022-12-01T19:58:28.431Z,49.88
2022-12-01T20:01:32.347Z,54.97
2022-12-01T20:04:38.484Z,46.15
2022-12-01T20:07:41.487Z,33.15
2022-12-01T20:10:49.985Z,66.60
2022-12-01T20:13:53.483Z,44.90
2022-12-01T20:16:56.208Z,32.03
2022-12-01T20:19:59.111Z,59.03
2022-12-01T20:23:02.029Z,48.72
2022-12-01T20:26:07.882Z,50.33
2022-12-01T20:29:28.170Z,33.55
2022-12-01T20:32:36.032Z,19.63
2022-12-01T20:35:38.871Z,35.28
2022-12-01T20:38:42.115Z,26.65
2022-12-01T20:41:45.267Z,34.67
2022-12-01T20:44:49.174Z,26.75
2022-12-01T20:47:52.191Z,20.50
2022-12-01T20:50:55.075Z,19.52
2022-12-01T20:54:26.306Z,18.67
2022-12-01T20:57:20.819Z,18.00
2022-12-01T21:00:23.808Z,20.02
2022-12-01T21:03:27.160Z,18.33
2022-12-01T21:06:29.706Z,19.73
2022-12-01T21:09:32.763Z,18.20
2022-12-01T21:12:54.668Z,21.40
2022-12-01T21:16:04.126Z,24.92
2022-12-01T21:19:15.872Z,18.80
2022-12-01T21:22:19.431Z,22.27
2022-12-01T21:25:24.419Z,18.27
2022-12-01T21:28:27.841Z,21.40
2022-12-01T21:31:32.090Z,17.88
2022-12-01T21:34:35.616Z,22.77
2022-12-01T21:37:38.095Z,19.42
2022-12-01T21:40:43.916Z,23.58
2022-12-01T21:43:46.438Z,25.57
2022-12-01T21:46:56.732Z,21.67
2022-12-01T21:50:08.916Z,24.15
2022-12-01T21:53:16.782Z,23.10
2022-12-01T21:56:25.658Z,19.23
2022-12-01T21:59:28.294Z,21.60
2022-12-01T22:02:48.849Z,24.25
2022-12-01T22:06:27.544Z,21.77
2022-12-01T22:09:34.280Z,21.90
2022-12-01T22:12:37.967Z,21.88
2022-12-01T22:15:41.389Z,19.57
2022-12-01T22:18:55.969Z,21.63
2022-12-01T22:22:10.706Z,24.23
2022-12-01T22:25:27.424Z,20.10
2022-12-01T22:28:30.094Z,22.40
2022-12-01T22:31:32.843Z,20.30
2022-12-01T22:34:35.435Z,21.02
2022-12-01T22:37:45.247Z,23.67
2022-12-01T22:41:13.302Z,20.92
2022-12-01T22:44:16.084Z,22.85
2022-12-01T22:47:18.523Z,22.97
2022-12-01T22:50:28.653Z,24.67
2022-12-01T22:53:31.366Z,22.33
2022-12-01T22:56:43.171Z,19.98
2022-12-01T22:59:47.776Z,25.10
2022-12-01T23:02:53.334Z,22.90
2022-12-01T23:05:57.378Z,23.55
2022-12-01T23:09:00.338Z,20.80
2022-12-01T23:12:30.207Z,25.90
2022-12-01T23:15:41.386Z,22.08
2022-12-01T23:18:43.881Z,21.77
2022-12-01T23:21:46.733Z,23.75
2022-12-01T23:24:49.501Z,23.67
2022-12-01T23:27:54.362Z,21.10
2022-12-01T23:30:59.350Z,20.25
2022-12-01T23:34:02.072Z,23.42
2022-12-01T23:37:15.248Z,21.83
2022-12-01T23:40:26.600Z,21.13
2022-12-01T23:43:34.729Z,25.05
2022-12-01T23:46:37.678Z,21.30
2022-12-01T23:49:40.591Z,23.17
2022-12-01T23:52:43.241Z,20.55
2022-12-01T23:55:45.791Z,23.60
2022-12-01T23:58:48.863Z,19.92
